sensor_id;sensor_type;location;lat;lon;timestamp;temperature;humidity
55135;DHT22;41031;44.750;11.308;2022-11-30T00:01:19;6.00;98.70
55135;DHT22;41031;44.750;11.308;2022-11-30T00:03:47;6.00;98.70
55135;DHT22;41031;44.750;11.308;2022-11-30T00:06:16;6.00;98.70
55135;DHT22;41031;44.750;11.308;2022-11-30T00:08:55;6.00;98.80
55135;DHT22;41031;44.750;11.308;2022-11-30T00:11:24;6.00;98.80
55135;DHT22;41031;44.750;11.308;2022-11-30T00:13:51;6.00;98.80
55135;DHT22;41031;44.750;11.308;2022-11-30T00:16:18;6.00;98.90
55135;DHT22;41031;44.750;11.308;2022-11-30T00:18:46;5.90;98.90
55135;DHT22;41031;44.750;11.308;2022-11-30T00:21:14;5.90;98.90
55135;DHT22;41031;44.750;11.308;2022-11-30T00:23:44;5.90;98.80
55135;DHT22;41031;44.750;11.308;2022-11-30T00:26:15;5.90;98.70
55135;DHT22;41031;44.750;11.308;2022-11-30T00:28:42;5.90;98.70
55135;DHT22;41031;44.750;11.308;2022-11-30T00:31:12;5.90;98.80
55135;DHT22;41031;44.750;11.308;2022-11-30T00:33:40;5.90;98.80
55135;DHT22;41031;44.750;11.308;2022-11-30T00:36:13;5.90;98.90
55135;DHT22;41031;44.750;11.308;2022-11-30T00:38:41;5.90;98.90
55135;DHT22;41031;44.750;11.308;2022-11-30T00:41:09;5.90;98.90
55135;DHT22;41031;44.750;11.308;2022-11-30T00:43:36;5.90;98.80
55135;DHT22;41031;44.750;11.308;2022-11-30T00:46:04;5.80;98.80
55135;DHT22;41031;44.750;11.308;2022-11-30T00:48:31;5.80;98.80
55135;DHT22;41031;44.750;11.308;2022-11-30T00:50:58;5.80;98.80
55135;DHT22;41031;44.750;11.308;2022-11-30T00:53:25;5.80;98.90
55135;DHT22;41031;44.750;11.308;2022-11-30T00:55:52;5.70;98.90
55135;DHT22;41031;44.750;11.308;2022-11-30T00:58:20;5.70;99.00
55135;DHT22;41031;44.750;11.308;2022-11-30T01:00:47;5.70;99.00
55135;DHT22;41031;44.750;11.308;2022-11-30T01:03:14;5.70;99.00
55135;DHT22;41031;44.750;11.308;2022-11-30T01:05:41;5.60;99.00
55135;DHT22;41031;44.750;11.308;2022-11-30T01:08:12;5.60;99.00
55135;DHT22;41031;44.750;11.308;2022-11-30T01:10:41;5.60;99.10
55135;DHT22;41031;44.750;11.308;2022-11-30T01:13:11;5.50;99.20
55135;DHT22;41031;44.750;11.308;2022-11-30T01:15:40;5.50;99.20
55135;DHT22;41031;44.750;11.308;2022-11-30T01:18:08;5.50;99.30
55135;DHT22;41031;44.750;11.308;2022-11-30T01:20:39;5.40;99.30
55135;DHT22;41031;44.750;11.308;2022-11-30T01:23:07;5.40;99.30
55135;DHT22;41031;44.750;11.308;2022-11-30T01:25:34;5.50;99.40
55135;DHT22;41031;44.750;11.308;2022-11-30T01:28:02;5.40;99.40
55135;DHT22;41031;44.750;11.308;2022-11-30T01:30:29;5.40;99.40
55135;DHT22;41031;44.750;11.308;2022-11-30T01:33:01;5.40;99.40
55135;DHT22;41031;44.750;11.308;2022-11-30T01:35:28;5.40;99.40
55135;DHT22;41031;44.750;11.308;2022-11-30T01:37:55;5.30;99.40
55135;DHT22;41031;44.750;11.308;2022-11-30T01:40:22;5.30;99.50
55135;DHT22;41031;44.750;11.308;2022-11-30T01:42:49;5.30;99.50
55135;DHT22;41031;44.750;11.308;2022-11-30T01:45:16;5.40;99.50
55135;DHT22;41031;44.750;11.308;2022-11-30T01:47:47;5.30;99.40
55135;DHT22;41031;44.750;11.308;2022-11-30T01:52:54;5.30;99.40
55135;DHT22;41031;44.750;11.308;2022-11-30T01:55:34;5.30;99.40
55135;DHT22;41031;44.750;11.308;2022-11-30T01:58:23;5.30;99.50
55135;DHT22;41031;44.750;11.308;2022-11-30T02:00:51;5.30;99.40
55135;DHT22;41031;44.750;11.308;2022-11-30T02:06:04;5.20;99.40
55135;DHT22;41031;44.750;11.308;2022-11-30T02:08:32;5.20;99.40
55135;DHT22;41031;44.750;11.308;2022-11-30T02:11:03;5.20;99.40
55135;DHT22;41031;44.750;11.308;2022-11-30T02:21:59;5.20;99.00
55135;DHT22;41031;44.750;11.308;2022-11-30T02:35:16;5.10;98.60
55135;DHT22;41031;44.750;11.308;2022-11-30T02:37:45;5.00;98.60
55135;DHT22;41031;44.750;11.308;2022-11-30T02:40:15;5.10;98.60
55135;DHT22;41031;44.750;11.308;2022-11-30T02:42:43;5.00;98.60
55135;DHT22;41031;44.750;11.308;2022-11-30T02:45:11;5.00;98.60
55135;DHT22;41031;44.750;11.308;2022-11-30T02:48:11;5.00;98.60
55135;DHT22;41031;44.750;11.308;2022-11-30T02:50:55;5.00;98.60
55135;DHT22;41031;44.750;11.308;2022-11-30T02:53:23;4.90;98.50
55135;DHT22;41031;44.750;11.308;2022-11-30T02:55:52;4.90;98.50
55135;DHT22;41031;44.750;11.308;2022-11-30T02:58:20;4.90;98.60
55135;DHT22;41031;44.750;11.308;2022-11-30T03:00:48;4.80;98.60
55135;DHT22;41031;44.750;11.308;2022-11-30T03:03:15;4.80;98.60
55135;DHT22;41031;44.750;11.308;2022-11-30T03:05:42;4.80;98.70
55135;DHT22;41031;44.750;11.308;2022-11-30T03:08:09;4.80;98.60
55135;DHT22;41031;44.750;11.308;2022-11-30T03:10:36;4.80;98.70
55135;DHT22;41031;44.750;11.308;2022-11-30T03:13:03;4.80;98.60
55135;DHT22;41031;44.750;11.308;2022-11-30T03:15:30;4.80;98.90
55135;DHT22;41031;44.750;11.308;2022-11-30T03:18:01;4.70;98.60
55135;DHT22;41031;44.750;11.308;2022-11-30T03:20:28;4.70;98.60
55135;DHT22;41031;44.750;11.308;2022-11-30T03:23:00;4.80;98.60
55135;DHT22;41031;44.750;11.308;2022-11-30T03:25:27;4.80;98.50
55135;DHT22;41031;44.750;11.308;2022-11-30T03:27:54;4.80;98.50
55135;DHT22;41031;44.750;11.308;2022-11-30T03:30:21;4.80;98.50
55135;DHT22;41031;44.750;11.308;2022-11-30T03:32:49;4.80;98.50
55135;DHT22;41031;44.750;11.308;2022-11-30T03:35:17;4.80;98.40
55135;DHT22;41031;44.750;11.308;2022-11-30T03:37:46;4.70;98.40
55135;DHT22;41031;44.750;11.308;2022-11-30T03:40:13;4.80;98.30
55135;DHT22;41031;44.750;11.308;2022-11-30T03:42:40;4.80;98.30
55135;DHT22;41031;44.750;11.308;2022-11-30T03:45:08;4.80;98.30
55135;DHT22;41031;44.750;11.308;2022-11-30T03:47:36;4.80;98.30
55135;DHT22;41031;44.750;11.308;2022-11-30T03:50:03;4.70;98.30
55135;DHT22;41031;44.750;11.308;2022-11-30T03:52:30;4.70;98.30
55135;DHT22;41031;44.750;11.308;2022-11-30T03:54:57;4.70;98.30
55135;DHT22;41031;44.750;11.308;2022-11-30T03:57:24;4.70;98.20
55135;DHT22;41031;44.750;11.308;2022-11-30T03:59:51;4.70;98.20
55135;DHT22;41031;44.750;11.308;2022-11-30T04:02:19;4.70;98.30
55135;DHT22;41031;44.750;11.308;2022-11-30T04:04:46;4.60;98.30
55135;DHT22;41031;44.750;11.308;2022-11-30T04:07:13;4.60;98.30
55135;DHT22;41031;44.750;11.308;2022-11-30T04:09:40;4.60;98.30
55135;DHT22;41031;44.750;11.308;2022-11-30T04:12:07;4.60;98.20
55135;DHT22;41031;44.750;11.308;2022-11-30T04:14:34;4.60;98.30
55135;DHT22;41031;44.750;11.308;2022-11-30T04:17:01;4.50;98.20
55135;DHT22;41031;44.750;11.308;2022-11-30T04:19:28;4.50;98.20
55135;DHT22;41031;44.750;11.308;2022-11-30T04:21:55;4.50;98.30
55135;DHT22;41031;44.750;11.308;2022-11-30T04:24:23;4.50;98.20
55135;DHT22;41031;44.750;11.308;2022-11-30T04:26:50;4.50;98.20
55135;DHT22;41031;44.750;11.308;2022-11-30T04:29:17;4.40;98.10
55135;DHT22;41031;44.750;11.308;2022-11-30T04:31:44;4.40;98.10
55135;DHT22;41031;44.750;11.308;2022-11-30T04:34:11;4.40;98.10
55135;DHT22;41031;44.750;11.308;2022-11-30T04:36:38;4.40;98.00
55135;DHT22;41031;44.750;11.308;2022-11-30T04:39:05;4.30;98.00
55135;DHT22;41031;44.750;11.308;2022-11-30T04:41:32;4.30;98.00
55135;DHT22;41031;44.750;11.308;2022-11-30T04:43:59;4.20;97.90
55135;DHT22;41031;44.750;11.308;2022-11-30T04:46:27;4.20;97.90
55135;DHT22;41031;44.750;11.308;2022-11-30T04:48:54;4.10;97.80
55135;DHT22;41031;44.750;11.308;2022-11-30T04:51:21;4.10;97.80
55135;DHT22;41031;44.750;11.308;2022-11-30T04:53:48;4.00;97.80
55135;DHT22;41031;44.750;11.308;2022-11-30T04:56:15;4.00;97.80
55135;DHT22;41031;44.750;11.308;2022-11-30T04:58:42;4.00;97.80
55135;DHT22;41031;44.750;11.308;2022-11-30T05:01:09;4.00;97.80
55135;DHT22;41031;44.750;11.308;2022-11-30T05:03:36;4.00;97.80
55135;DHT22;41031;44.750;11.308;2022-11-30T05:06:03;4.00;97.80
55135;DHT22;41031;44.750;11.308;2022-11-30T05:08:30;3.90;97.70
55135;DHT22;41031;44.750;11.308;2022-11-30T05:10:57;4.00;97.80
55135;DHT22;41031;44.750;11.308;2022-11-30T05:13:25;3.90;97.80
55135;DHT22;41031;44.750;11.308;2022-11-30T05:15:52;4.00;97.80
55135;DHT22;41031;44.750;11.308;2022-11-30T05:18:20;4.00;97.90
55135;DHT22;41031;44.750;11.308;2022-11-30T05:20:48;4.00;97.80
55135;DHT22;41031;44.750;11.308;2022-11-30T05:23:16;4.00;97.80
55135;DHT22;41031;44.750;11.308;2022-11-30T05:25:43;4.00;97.80
55135;DHT22;41031;44.750;11.308;2022-11-30T05:28:11;4.00;97.80
55135;DHT22;41031;44.750;11.308;2022-11-30T05:30:40;4.10;97.80
55135;DHT22;41031;44.750;11.308;2022-11-30T05:33:07;4.10;97.80
55135;DHT22;41031;44.750;11.308;2022-11-30T05:35:35;4.10;97.90
55135;DHT22;41031;44.750;11.308;2022-11-30T05:38:02;4.10;97.90
55135;DHT22;41031;44.750;11.308;2022-11-30T05:40:29;4.10;97.90
55135;DHT22;41031;44.750;11.308;2022-11-30T05:42:59;4.20;97.90
55135;DHT22;41031;44.750;11.308;2022-11-30T05:45:27;4.20;97.90
55135;DHT22;41031;44.750;11.308;2022-11-30T05:47:55;4.20;97.80
55135;DHT22;41031;44.750;11.308;2022-11-30T05:50:22;4.20;97.90
55135;DHT22;41031;44.750;11.308;2022-11-30T05:52:52;4.20;97.80
55135;DHT22;41031;44.750;11.308;2022-11-30T05:55:22;4.30;97.70
55135;DHT22;41031;44.750;11.308;2022-11-30T05:57:50;4.20;97.60
55135;DHT22;41031;44.750;11.308;2022-11-30T06:00:17;4.30;97.70
55135;DHT22;41031;44.750;11.308;2022-11-30T06:02:44;4.30;97.70
55135;DHT22;41031;44.750;11.308;2022-11-30T06:05:12;4.30;97.60
55135;DHT22;41031;44.750;11.308;2022-11-30T06:07:40;4.40;97.70
55135;DHT22;41031;44.750;11.308;2022-11-30T06:10:07;4.40;97.70
55135;DHT22;41031;44.750;11.308;2022-11-30T06:12:34;4.40;97.70
55135;DHT22;41031;44.750;11.308;2022-11-30T06:15:01;4.40;97.80
55135;DHT22;41031;44.750;11.308;2022-11-30T06:17:29;4.50;97.90
55135;DHT22;41031;44.750;11.308;2022-11-30T06:19:56;4.50;97.90
55135;DHT22;41031;44.750;11.308;2022-11-30T06:22:23;4.50;98.00
55135;DHT22;41031;44.750;11.308;2022-11-30T06:24:50;4.60;98.00
55135;DHT22;41031;44.750;11.308;2022-11-30T06:27:17;4.60;98.00
55135;DHT22;41031;44.750;11.308;2022-11-30T06:29:44;4.60;98.00
55135;DHT22;41031;44.750;11.308;2022-11-30T06:32:11;4.60;98.00
55135;DHT22;41031;44.750;11.308;2022-11-30T06:34:38;4.70;98.00
55135;DHT22;41031;44.750;11.308;2022-11-30T06:37:05;4.70;98.00
55135;DHT22;41031;44.750;11.308;2022-11-30T06:39:32;4.70;98.00
55135;DHT22;41031;44.750;11.308;2022-11-30T06:42:19;4.70;98.00
55135;DHT22;41031;44.750;11.308;2022-11-30T06:44:47;4.70;98.00
55135;DHT22;41031;44.750;11.308;2022-11-30T06:47:15;4.60;97.90
55135;DHT22;41031;44.750;11.308;2022-11-30T06:49:42;4.60;97.90
55135;DHT22;41031;44.750;11.308;2022-11-30T06:52:09;4.60;97.90
55135;DHT22;41031;44.750;11.308;2022-11-30T06:54:36;4.60;97.80
55135;DHT22;41031;44.750;11.308;2022-11-30T06:57:03;4.60;97.80
55135;DHT22;41031;44.750;11.308;2022-11-30T06:59:30;4.50;97.80
55135;DHT22;41031;44.750;11.308;2022-11-30T07:01:57;4.50;97.80
55135;DHT22;41031;44.750;11.308;2022-11-30T07:04:32;4.50;97.90
55135;DHT22;41031;44.750;11.308;2022-11-30T07:06:59;4.50;97.90
55135;DHT22;41031;44.750;11.308;2022-11-30T07:09:26;4.50;97.90
55135;DHT22;41031;44.750;11.308;2022-11-30T07:11:53;4.50;97.90
55135;DHT22;41031;44.750;11.308;2022-11-30T07:14:20;4.50;97.90
55135;DHT22;41031;44.750;11.308;2022-11-30T07:16:47;4.50;98.00
55135;DHT22;41031;44.750;11.308;2022-11-30T07:19:14;4.60;98.10
55135;DHT22;41031;44.750;11.308;2022-11-30T07:21:41;4.60;98.00
55135;DHT22;41031;44.750;11.308;2022-11-30T07:24:10;4.60;98.10
55135;DHT22;41031;44.750;11.308;2022-11-30T07:26:58;4.70;98.10
55135;DHT22;41031;44.750;11.308;2022-11-30T07:29:26;4.70;98.00
55135;DHT22;41031;44.750;11.308;2022-11-30T07:31:54;4.70;98.00
55135;DHT22;41031;44.750;11.308;2022-11-30T07:34:21;4.80;98.00
55135;DHT22;41031;44.750;11.308;2022-11-30T07:36:48;4.80;97.90
55135;DHT22;41031;44.750;11.308;2022-11-30T07:39:15;4.80;97.90
55135;DHT22;41031;44.750;11.308;2022-11-30T07:41:42;4.90;98.00
55135;DHT22;41031;44.750;11.308;2022-11-30T07:44:10;4.90;98.00
55135;DHT22;41031;44.750;11.308;2022-11-30T07:46:39;5.00;98.10
55135;DHT22;41031;44.750;11.308;2022-11-30T07:49:08;5.00;98.10
55135;DHT22;41031;44.750;11.308;2022-11-30T07:51:36;5.20;98.20
55135;DHT22;41031;44.750;11.308;2022-11-30T07:54:03;5.20;98.10
55135;DHT22;41031;44.750;11.308;2022-11-30T07:56:30;5.30;98.20
55135;DHT22;41031;44.750;11.308;2022-11-30T07:58:59;5.40;98.20
55135;DHT22;41031;44.750;11.308;2022-11-30T08:01:31;5.40;98.20
55135;DHT22;41031;44.750;11.308;2022-11-30T08:03:59;5.60;98.20
55135;DHT22;41031;44.750;11.308;2022-11-30T08:06:30;5.60;98.20
55135;DHT22;41031;44.750;11.308;2022-11-30T08:09:00;5.70;98.10
55135;DHT22;41031;44.750;11.308;2022-11-30T08:11:29;5.70;98.10
55135;DHT22;41031;44.750;11.308;2022-11-30T08:13:57;5.80;98.10
55135;DHT22;41031;44.750;11.308;2022-11-30T08:16:26;5.90;98.10
55135;DHT22;41031;44.750;11.308;2022-11-30T08:18:55;5.90;97.80
55135;DHT22;41031;44.750;11.308;2022-11-30T08:21:23;6.00;97.50
55135;DHT22;41031;44.750;11.308;2022-11-30T08:23:55;6.00;97.40
55135;DHT22;41031;44.750;11.308;2022-11-30T08:26:31;6.10;97.40
55135;DHT22;41031;44.750;11.308;2022-11-30T08:28:59;6.10;97.40
55135;DHT22;41031;44.750;11.308;2022-11-30T08:31:32;6.20;97.50
55135;DHT22;41031;44.750;11.308;2022-11-30T08:36:29;6.40;96.90
55135;DHT22;41031;44.750;11.308;2022-11-30T08:38:57;6.50;96.80
55135;DHT22;41031;44.750;11.308;2022-11-30T08:41:25;6.60;96.60
55135;DHT22;41031;44.750;11.308;2022-11-30T08:43:52;6.60;96.40
55135;DHT22;41031;44.750;11.308;2022-11-30T08:46:21;6.70;96.00
55135;DHT22;41031;44.750;11.308;2022-11-30T08:49:09;6.70;95.50
55135;DHT22;41031;44.750;11.308;2022-11-30T08:51:54;6.80;95.20
55135;DHT22;41031;44.750;11.308;2022-11-30T08:54:42;6.90;95.30
55135;DHT22;41031;44.750;11.308;2022-11-30T08:57:13;7.10;95.40
55135;DHT22;41031;44.750;11.308;2022-11-30T08:59:40;7.20;95.20
55135;DHT22;41031;44.750;11.308;2022-11-30T09:02:09;7.30;94.90
55135;DHT22;41031;44.750;11.308;2022-11-30T09:04:37;7.40;94.50
55135;DHT22;41031;44.750;11.308;2022-11-30T09:07:04;7.50;93.80
55135;DHT22;41031;44.750;11.308;2022-11-30T09:09:31;7.60;93.20
55135;DHT22;41031;44.750;11.308;2022-11-30T09:11:58;7.70;93.10
55135;DHT22;41031;44.750;11.308;2022-11-30T09:14:25;7.70;92.80
55135;DHT22;41031;44.750;11.308;2022-11-30T09:16:53;7.70;92.00
55135;DHT22;41031;44.750;11.308;2022-11-30T09:19:20;7.80;91.90
55135;DHT22;41031;44.750;11.308;2022-11-30T09:21:48;7.80;91.40
55135;DHT22;41031;44.750;11.308;2022-11-30T09:24:18;7.80;91.00
55135;DHT22;41031;44.750;11.308;2022-11-30T09:26:46;7.90;91.20
55135;DHT22;41031;44.750;11.308;2022-11-30T09:29:13;7.90;91.40
55135;DHT22;41031;44.750;11.308;2022-11-30T09:31:40;7.90;91.30
55135;DHT22;41031;44.750;11.308;2022-11-30T09:34:10;8.00;90.50
55135;DHT22;41031;44.750;11.308;2022-11-30T09:36:37;8.10;90.30
55135;DHT22;41031;44.750;11.308;2022-11-30T09:39:05;8.10;90.00
55135;DHT22;41031;44.750;11.308;2022-11-30T09:49:45;8.30;89.30
55135;DHT22;41031;44.750;11.308;2022-11-30T09:55:27;8.30;89.00
55135;DHT22;41031;44.750;11.308;2022-11-30T09:58:02;8.40;89.30
55135;DHT22;41031;44.750;11.308;2022-11-30T10:00:30;8.50;89.30
55135;DHT22;41031;44.750;11.308;2022-11-30T10:03:00;8.50;89.10
55135;DHT22;41031;44.750;11.308;2022-11-30T10:10:41;8.50;88.80
55135;DHT22;41031;44.750;11.308;2022-11-30T10:13:35;8.60;87.80
55135;DHT22;41031;44.750;11.308;2022-11-30T10:29:59;9.10;85.40
55135;DHT22;41031;44.750;11.308;2022-11-30T10:32:37;9.10;84.90
55135;DHT22;41031;44.750;11.308;2022-11-30T10:38:26;9.30;84.60
55135;DHT22;41031;44.750;11.308;2022-11-30T10:41:07;9.30;84.00
55135;DHT22;41031;44.750;11.308;2022-11-30T10:44:05;9.40;84.10
55135;DHT22;41031;44.750;11.308;2022-11-30T10:46:37;9.40;84.20
55135;DHT22;41031;44.750;11.308;2022-11-30T10:49:11;9.40;84.50
55135;DHT22;41031;44.750;11.308;2022-11-30T10:51:42;9.50;84.50
55135;DHT22;41031;44.750;11.308;2022-11-30T10:54:16;9.50;85.30
55135;DHT22;41031;44.750;11.308;2022-11-30T10:56:45;9.60;85.70
55135;DHT22;41031;44.750;11.308;2022-11-30T10:59:22;9.70;85.80
55135;DHT22;41031;44.750;11.308;2022-11-30T11:01:50;9.80;84.80
55135;DHT22;41031;44.750;11.308;2022-11-30T11:04:24;9.80;84.30
55135;DHT22;41031;44.750;11.308;2022-11-30T11:07:07;9.90;84.50
55135;DHT22;41031;44.750;11.308;2022-11-30T11:09:38;10.00;82.80
55135;DHT22;41031;44.750;11.308;2022-11-30T11:12:19;10.10;79.90
55135;DHT22;41031;44.750;11.308;2022-11-30T11:14:47;10.10;79.10
55135;DHT22;41031;44.750;11.308;2022-11-30T11:19:46;10.20;76.90
55135;DHT22;41031;44.750;11.308;2022-11-30T11:22:28;10.30;76.30
55135;DHT22;41031;44.750;11.308;2022-11-30T11:25:38;10.30;75.80
55135;DHT22;41031;44.750;11.308;2022-11-30T11:28:14;10.40;73.70
55135;DHT22;41031;44.750;11.308;2022-11-30T11:30:42;10.50;73.50
55135;DHT22;41031;44.750;11.308;2022-11-30T11:35:45;10.60;71.90
55135;DHT22;41031;44.750;11.308;2022-11-30T11:41:03;10.60;71.50
55135;DHT22;41031;44.750;11.308;2022-11-30T11:43:32;10.60;71.50
55135;DHT22;41031;44.750;11.308;2022-11-30T11:46:11;10.60;72.60
55135;DHT22;41031;44.750;11.308;2022-11-30T11:51:33;10.60;71.20
55135;DHT22;41031;44.750;11.308;2022-11-30T11:54:21;10.60;72.40
55135;DHT22;41031;44.750;11.308;2022-11-30T11:56:49;10.70;70.60
55135;DHT22;41031;44.750;11.308;2022-11-30T11:59:51;10.70;71.40
55135;DHT22;41031;44.750;11.308;2022-11-30T12:05:32;10.90;72.30
55135;DHT22;41031;44.750;11.308;2022-11-30T12:08:06;10.90;71.10
55135;DHT22;41031;44.750;11.308;2022-11-30T12:10:43;10.90;69.80
55135;DHT22;41031;44.750;11.308;2022-11-30T12:13:45;10.90;70.60
55135;DHT22;41031;44.750;11.308;2022-11-30T12:16:21;10.90;69.10
55135;DHT22;41031;44.750;11.308;2022-11-30T12:19:14;10.90;69.30
55135;DHT22;41031;44.750;11.308;2022-11-30T12:22:18;10.80;70.40
55135;DHT22;41031;44.750;11.308;2022-11-30T12:30:28;10.70;71.30
55135;DHT22;41031;44.750;11.308;2022-11-30T12:39:13;10.50;72.50
55135;DHT22;41031;44.750;11.308;2022-11-30T12:42:14;10.50;71.30
55135;DHT22;41031;44.750;11.308;2022-11-30T12:44:54;10.40;72.40
55135;DHT22;41031;44.750;11.308;2022-11-30T13:04:49;10.30;70.30
55135;DHT22;41031;44.750;11.308;2022-11-30T13:07:36;10.20;70.40
55135;DHT22;41031;44.750;11.308;2022-11-30T13:10:24;10.20;71.20
55135;DHT22;41031;44.750;11.308;2022-11-30T13:12:54;10.20;71.10
55135;DHT22;41031;44.750;11.308;2022-11-30T13:15:24;10.10;71.30
55135;DHT22;41031;44.750;11.308;2022-11-30T13:17:53;10.10;71.20
55135;DHT22;41031;44.750;11.308;2022-11-30T13:20:31;10.10;71.60
55135;DHT22;41031;44.750;11.308;2022-11-30T13:25:38;10.10;72.90
55135;DHT22;41031;44.750;11.308;2022-11-30T13:31:30;10.10;73.40
55135;DHT22;41031;44.750;11.308;2022-11-30T13:34:00;10.10;73.70
55135;DHT22;41031;44.750;11.308;2022-11-30T13:39:24;10.10;73.10
55135;DHT22;41031;44.750;11.308;2022-11-30T13:45:14;10.00;73.10
55135;DHT22;41031;44.750;11.308;2022-11-30T13:47:49;10.00;73.50
55135;DHT22;41031;44.750;11.308;2022-11-30T13:50:36;10.00;73.60
55135;DHT22;41031;44.750;11.308;2022-11-30T13:53:18;9.90;72.80
55135;DHT22;41031;44.750;11.308;2022-11-30T13:58:16;9.90;73.40
55135;DHT22;41031;44.750;11.308;2022-11-30T14:03:30;9.90;73.40
55135;DHT22;41031;44.750;11.308;2022-11-30T14:09:14;9.80;73.70
55135;DHT22;41031;44.750;11.308;2022-11-30T14:11:45;9.80;73.80
55135;DHT22;41031;44.750;11.308;2022-11-30T14:17:16;9.80;75.10
55135;DHT22;41031;44.750;11.308;2022-11-30T14:19:50;9.70;73.90
55135;DHT22;41031;44.750;11.308;2022-11-30T14:22:17;9.80;74.60
55135;DHT22;41031;44.750;11.308;2022-11-30T14:24:47;9.70;75.10
55135;DHT22;41031;44.750;11.308;2022-11-30T14:27:23;9.70;75.60
55135;DHT22;41031;44.750;11.308;2022-11-30T14:29:55;9.70;75.50
55135;DHT22;41031;44.750;11.308;2022-11-30T14:35:04;9.70;76.10
55135;DHT22;41031;44.750;11.308;2022-11-30T14:37:43;9.70;76.40
55135;DHT22;41031;44.750;11.308;2022-11-30T14:40:18;9.70;76.50
55135;DHT22;41031;44.750;11.308;2022-11-30T14:42:54;9.60;76.60
55135;DHT22;41031;44.750;11.308;2022-11-30T14:45:27;9.60;76.80
55135;DHT22;41031;44.750;11.308;2022-11-30T14:48:14;9.60;76.80
55135;DHT22;41031;44.750;11.308;2022-11-30T14:50:57;9.50;76.90
55135;DHT22;41031;44.750;11.308;2022-11-30T14:56:23;9.50;77.00
55135;DHT22;41031;44.750;11.308;2022-11-30T14:59:17;9.40;77.10
55135;DHT22;41031;44.750;11.308;2022-11-30T15:02:01;9.40;76.80
55135;DHT22;41031;44.750;11.308;2022-11-30T15:04:30;9.40;76.50
55135;DHT22;41031;44.750;11.308;2022-11-30T15:06:57;9.40;76.70
55135;DHT22;41031;44.750;11.308;2022-11-30T15:09:30;9.40;77.00
55135;DHT22;41031;44.750;11.308;2022-11-30T15:11:58;9.40;77.20
55135;DHT22;41031;44.750;11.308;2022-11-30T15:14:25;9.40;77.50
55135;DHT22;41031;44.750;11.308;2022-11-30T15:16:55;9.40;77.90
55135;DHT22;41031;44.750;11.308;2022-11-30T15:19:31;9.30;78.10
55135;DHT22;41031;44.750;11.308;2022-11-30T15:21:59;9.30;78.40
55135;DHT22;41031;44.750;11.308;2022-11-30T15:24:27;9.30;78.50
55135;DHT22;41031;44.750;11.308;2022-11-30T15:27:02;9.30;78.60
55135;DHT22;41031;44.750;11.308;2022-11-30T15:29:39;9.30;78.80
55135;DHT22;41031;44.750;11.308;2022-11-30T15:32:19;9.30;78.90
55135;DHT22;41031;44.750;11.308;2022-11-30T15:37:38;9.30;78.20
55135;DHT22;41031;44.750;11.308;2022-11-30T15:40:08;9.30;78.50
55135;DHT22;41031;44.750;11.308;2022-11-30T15:42:38;9.30;78.60
55135;DHT22;41031;44.750;11.308;2022-11-30T15:47:45;9.20;79.00
55135;DHT22;41031;44.750;11.308;2022-11-30T15:53:18;9.20;79.20
55135;DHT22;41031;44.750;11.308;2022-11-30T15:55:47;9.20;79.10
55135;DHT22;41031;44.750;11.308;2022-11-30T16:01:04;9.20;79.00
55135;DHT22;41031;44.750;11.308;2022-11-30T16:03:34;9.20;79.20
55135;DHT22;41031;44.750;11.308;2022-11-30T16:06:03;9.20;79.00
55135;DHT22;41031;44.750;11.308;2022-11-30T16:08:31;9.20;79.00
55135;DHT22;41031;44.750;11.308;2022-11-30T16:10:58;9.20;78.80
55135;DHT22;41031;44.750;11.308;2022-11-30T16:13:33;9.10;78.80
55135;DHT22;41031;44.750;11.308;2022-11-30T16:16:00;9.10;78.80
55135;DHT22;41031;44.750;11.308;2022-11-30T16:18:29;9.10;78.70
55135;DHT22;41031;44.750;11.308;2022-11-30T16:20:58;9.20;78.30
55135;DHT22;41031;44.750;11.308;2022-11-30T16:23:26;9.20;78.40
55135;DHT22;41031;44.750;11.308;2022-11-30T16:25:53;9.10;78.40
55135;DHT22;41031;44.750;11.308;2022-11-30T16:28:21;9.10;78.50
55135;DHT22;41031;44.750;11.308;2022-11-30T16:30:49;9.10;78.60
55135;DHT22;41031;44.750;11.308;2022-11-30T16:33:19;9.10;78.70
55135;DHT22;41031;44.750;11.308;2022-11-30T16:38:13;9.00;78.50
55135;DHT22;41031;44.750;11.308;2022-11-30T16:40:40;9.00;78.40
55135;DHT22;41031;44.750;11.308;2022-11-30T16:43:09;9.00;78.30
55135;DHT22;41031;44.750;11.308;2022-11-30T16:45:40;9.00;78.10
55135;DHT22;41031;44.750;11.308;2022-11-30T16:48:07;9.00;78.00
55135;DHT22;41031;44.750;11.308;2022-11-30T16:50:35;9.00;78.20
55135;DHT22;41031;44.750;11.308;2022-11-30T16:53:03;9.00;78.20
55135;DHT22;41031;44.750;11.308;2022-11-30T16:55:33;9.00;78.10
55135;DHT22;41031;44.750;11.308;2022-11-30T16:58:04;9.00;77.70
55135;DHT22;41031;44.750;11.308;2022-11-30T17:00:31;9.00;77.70
55135;DHT22;41031;44.750;11.308;2022-11-30T17:03:07;9.00;77.80
55135;DHT22;41031;44.750;11.308;2022-11-30T17:05:35;9.00;77.90
55135;DHT22;41031;44.750;11.308;2022-11-30T17:08:03;9.00;77.60
55135;DHT22;41031;44.750;11.308;2022-11-30T17:10:30;9.00;77.80
55135;DHT22;41031;44.750;11.308;2022-11-30T17:12:57;9.00;78.30
55135;DHT22;41031;44.750;11.308;2022-11-30T17:15:24;9.00;78.40
55135;DHT22;41031;44.750;11.308;2022-11-30T17:17:51;8.90;78.40
55135;DHT22;41031;44.750;11.308;2022-11-30T17:20:18;8.90;78.70
55135;DHT22;41031;44.750;11.308;2022-11-30T17:22:45;8.90;79.00
55135;DHT22;41031;44.750;11.308;2022-11-30T17:25:17;8.90;79.50
55135;DHT22;41031;44.750;11.308;2022-11-30T17:27:46;8.90;80.00
55135;DHT22;41031;44.750;11.308;2022-11-30T17:30:15;8.90;80.50
55135;DHT22;41031;44.750;11.308;2022-11-30T17:32:43;8.80;81.10
55135;DHT22;41031;44.750;11.308;2022-11-30T17:35:10;8.80;81.50
55135;DHT22;41031;44.750;11.308;2022-11-30T17:37:37;8.80;82.00
55135;DHT22;41031;44.750;11.308;2022-11-30T17:40:05;8.80;82.40
55135;DHT22;41031;44.750;11.308;2022-11-30T17:42:33;8.80;83.20
55135;DHT22;41031;44.750;11.308;2022-11-30T17:45:00;8.80;83.80
55135;DHT22;41031;44.750;11.308;2022-11-30T17:47:27;8.80;84.40
55135;DHT22;41031;44.750;11.308;2022-11-30T17:49:54;8.80;85.00
55135;DHT22;41031;44.750;11.308;2022-11-30T17:52:22;8.70;85.20
55135;DHT22;41031;44.750;11.308;2022-11-30T17:54:49;8.70;85.50
55135;DHT22;41031;44.750;11.308;2022-11-30T17:57:16;8.70;85.80
55135;DHT22;41031;44.750;11.308;2022-11-30T17:59:43;8.70;86.20
55135;DHT22;41031;44.750;11.308;2022-11-30T18:02:11;8.60;86.30
55135;DHT22;41031;44.750;11.308;2022-11-30T18:04:38;8.60;86.80
55135;DHT22;41031;44.750;11.308;2022-11-30T18:07:05;8.60;87.10
55135;DHT22;41031;44.750;11.308;2022-11-30T18:09:32;8.60;87.30
55135;DHT22;41031;44.750;11.308;2022-11-30T18:12:07;8.50;87.50
55135;DHT22;41031;44.750;11.308;2022-11-30T18:14:35;8.50;87.70
55135;DHT22;41031;44.750;11.308;2022-11-30T18:17:02;8.60;88.00